createdAt,value
2022-08-20T00:00:33.771Z,39.5
2022-08-20T00:01:35.510Z,38.9
2022-08-20T00:02:37.371Z,39.2
2022-08-20T00:03:39.186Z,39.6
2022-08-20T00:04:40.859Z,39.8
2022-08-20T00:05:42.431Z,40.3
2022-08-20T00:06:44.048Z,40.3
2022-08-20T00:07:45.666Z,40.3
2022-08-20T00:08:49.887Z,40.2
2022-08-20T00:09:51.608Z,40
2022-08-20T00:10:55.934Z,39.7
2022-08-20T00:11:57.545Z,39.3
2022-08-20T00:12:59.244Z,39.1
2022-08-20T00:14:00.792Z,39.1
2022-08-20T00:15:02.435Z,39
2022-08-20T00:16:03.973Z,38.9
2022-08-20T00:17:05.524Z,38.8
2022-08-20T00:18:07.165Z,38.7
2022-08-20T00:19:08.783Z,38.7
2022-08-20T00:20:10.452Z,38.7
2022-08-20T00:21:19.398Z,38.6
2022-08-20T00:22:21.694Z,38.4
2022-08-20T00:23:23.273Z,38.3
2022-08-20T00:24:24.927Z,38.2
2022-08-20T00:25:26.570Z,38.1
2022-08-20T00:26:28.188Z,38
2022-08-20T00:27:29.751Z,37.9
2022-08-20T00:28:31.399Z,37.9
2022-08-20T00:29:33.014Z,37.7
2022-08-20T00:30:34.787Z,37.8
2022-08-20T00:31:38.383Z,37.6
2022-08-20T00:32:40.824Z,37.5
2022-08-20T00:33:42.553Z,37.4
2022-08-20T00:34:44.204Z,37.4
2022-08-20T00:35:45.885Z,37.2
2022-08-20T00:36:47.505Z,37.2
2022-08-20T00:37:49.311Z,37.1
2022-08-20T00:38:51.098Z,37.3
2022-08-20T00:39:53.092Z,37.2
2022-08-20T00:40:54.933Z,37.1
2022-08-20T00:41:56.579Z,37
2022-08-20T00:42:58.209Z,36.9
2022-08-20T00:44:02.630Z,36.9
2022-08-20T00:45:04.259Z,36.9
2022-08-20T00:46:06.139Z,36.9
2022-08-20T00:47:07.774Z,36.8
2022-08-20T00:48:09.393Z,36.7
2022-08-20T00:49:10.964Z,36.6
2022-08-20T00:50:17.527Z,36.6
2022-08-20T00:51:19.239Z,36.5
2022-08-20T00:52:20.920Z,36.5
2022-08-20T00:53:22.497Z,36.4
2022-08-20T00:54:24.304Z,36.5
2022-08-20T00:55:31.804Z,36.8
2022-08-20T00:56:33.510Z,37.4
2022-08-20T00:58:00.992Z,37.5
2022-08-20T00:59:04.165Z,38.2
2022-08-20T01:00:05.704Z,38.1
2022-08-20T01:01:07.238Z,38.6
2022-08-20T01:02:08.992Z,38.6
2022-08-20T01:03:10.990Z,38.8
2022-08-20T01:04:12.700Z,38.7
2022-08-20T01:05:14.315Z,39
2022-08-20T01:06:15.834Z,39.1
2022-08-20T01:07:17.537Z,39.4
2022-08-20T01:08:19.125Z,39
2022-08-20T01:09:59.514Z,39.2
2022-08-20T01:11:01.197Z,39
2022-08-20T01:12:02.801Z,39
2022-08-20T01:13:04.464Z,39
2022-08-20T01:14:06.084Z,39.1
2022-08-20T01:15:07.765Z,39
2022-08-20T01:16:09.296Z,39.2
2022-08-20T01:17:12.894Z,39.2
2022-08-20T01:18:14.508Z,39.4
2022-08-20T01:19:30.322Z,39.4
2022-08-20T01:20:32.168Z,39.5
2022-08-20T01:21:33.811Z,39.3
2022-08-20T01:22:35.465Z,38.9
2022-08-20T01:23:37.101Z,38.9
2022-08-20T01:24:41.620Z,38.8
2022-08-20T01:25:43.324Z,38.7
2022-08-20T01:26:45.000Z,38.7
2022-08-20T01:27:55.962Z,38.6
2022-08-20T01:28:59.799Z,38.5
2022-08-20T01:30:06.868Z,38.4
2022-08-20T01:31:09.981Z,38.3
2022-08-20T01:32:11.517Z,38.3
2022-08-20T01:33:13.153Z,38.2
2022-08-20T01:34:14.698Z,38.1
2022-08-20T01:35:16.389Z,38
2022-08-20T01:36:17.924Z,37.9
2022-08-20T01:37:19.582Z,37.8
2022-08-20T01:38:21.115Z,37.7
2022-08-20T01:39:22.646Z,37.7
2022-08-20T01:40:24.422Z,37.6
2022-08-20T01:41:28.978Z,37.5
2022-08-20T01:42:30.676Z,37.5
2022-08-20T01:43:37.435Z,37.5
2022-08-20T01:44:39.598Z,37.4
2022-08-20T01:45:41.213Z,37.3
2022-08-20T01:46:44.319Z,37.3
2022-08-20T01:47:49.889Z,37.2
2022-08-20T01:48:52.116Z,37.1
2022-08-20T01:49:53.707Z,37
2022-08-20T01:50:55.246Z,36.9
2022-08-20T01:51:56.848Z,36.9
2022-08-20T01:52:58.490Z,36.9
2022-08-20T01:54:00.136Z,36.9
2022-08-20T01:55:01.779Z,36.8
2022-08-20T01:56:03.394Z,36.8
2022-08-20T01:57:05.069Z,36.7
2022-08-20T01:58:06.717Z,36.7
2022-08-20T01:59:08.361Z,36.8
2022-08-20T02:00:20.489Z,36.8
2022-08-20T02:01:23.865Z,37
2022-08-20T02:02:25.790Z,36.9
2022-08-20T02:03:27.436Z,36.7
2022-08-20T02:04:29.188Z,36.7
2022-08-20T02:05:31.043Z,36.6
2022-08-20T02:06:32.822Z,36.7
2022-08-20T02:07:34.423Z,36.6
2022-08-20T02:08:36.070Z,36.5
2022-08-20T02:09:37.728Z,36.6
2022-08-20T02:10:39.477Z,36.6
2022-08-20T02:11:41.418Z,36.5
2022-08-20T02:12:43.059Z,36.5
2022-08-20T02:13:44.710Z,36.4
2022-08-20T02:14:46.456Z,36.4
2022-08-20T02:15:48.067Z,36.4
2022-08-20T02:16:55.696Z,36.4
2022-08-20T02:17:57.537Z,36.4
2022-08-20T02:18:59.245Z,36.3
2022-08-20T02:20:00.925Z,36.3
2022-08-20T02:21:02.462Z,36.3
2022-08-20T02:22:04.117Z,36.3
2022-08-20T02:23:05.701Z,36.2
2022-08-20T02:24:09.557Z,36.2
2022-08-20T02:25:12.074Z,36.2
2022-08-20T02:26:13.614Z,36.1
2022-08-20T02:27:15.311Z,36.2
2022-08-20T02:28:16.857Z,36.2
2022-08-20T02:29:18.496Z,36.1
2022-08-20T02:30:28.653Z,36.1
2022-08-20T02:31:35.158Z,36
2022-08-20T02:32:36.732Z,36.2
2022-08-20T02:33:39.416Z,36.3
2022-08-20T02:34:41.073Z,36.3
2022-08-20T02:35:42.693Z,36
2022-08-20T02:36:44.667Z,36.1
2022-08-20T02:37:46.207Z,36.1
2022-08-20T02:38:47.780Z,36.1
2022-08-20T02:39:49.552Z,36.1
2022-08-20T02:40:51.547Z,36.1
2022-08-20T02:41:53.088Z,36
2022-08-20T02:42:54.736Z,36.1
2022-08-20T02:43:56.485Z,36.1
2022-08-20T02:44:57.996Z,36
2022-08-20T02:45:59.672Z,36
2022-08-20T02:47:01.216Z,35.9
2022-08-20T02:48:02.962Z,35.8
2022-08-20T02:49:04.606Z,35.8
2022-08-20T02:50:08.305Z,35.8
2022-08-20T02:51:09.941Z,35.8
2022-08-20T02:52:11.480Z,35.9
2022-08-20T02:53:13.119Z,35.9
2022-08-20T02:54:14.779Z,35.9
2022-08-20T02:55:28.477Z,35.9
2022-08-20T02:56:30.260Z,35.9
2022-08-20T02:57:31.840Z,35.8
2022-08-20T02:58:33.547Z,35.8
2022-08-20T02:59:35.081Z,35.8
2022-08-20T03:00:38.889Z,35.9
2022-08-20T03:01:40.783Z,35.9
2022-08-20T03:02:42.494Z,35.8
2022-08-20T03:03:44.126Z,35.8
2022-08-20T03:04:45.796Z,35.9
2022-08-20T03:05:47.471Z,35.9
2022-08-20T03:06:52.541Z,35.9
2022-08-20T03:07:54.185Z,35.9
2022-08-20T03:08:56.072Z,35.9
2022-08-20T03:09:57.607Z,35.9
2022-08-20T03:10:59.326Z,35.8
2022-08-20T03:12:01.094Z,35.8
2022-08-20T03:13:02.829Z,36.1
2022-08-20T03:14:04.371Z,36.7
2022-08-20T03:15:06.016Z,37
2022-08-20T03:16:07.561Z,37.7
2022-08-20T03:17:09.074Z,37.8
2022-08-20T03:18:10.671Z,38.2
2022-08-20T03:19:12.258Z,38.1
2022-08-20T03:20:13.934Z,38.4
2022-08-20T03:21:15.682Z,38.4
2022-08-20T03:22:17.210Z,38.7
2022-08-20T03:23:18.869Z,38.9
2022-08-20T03:24:20.475Z,38.7
2022-08-20T03:25:22.157Z,39.1
2022-08-20T03:26:23.799Z,39.1
2022-08-20T03:27:36.360Z,39.1
2022-08-20T03:28:38.233Z,39.1
2022-08-20T03:29:39.780Z,39.1
2022-08-20T03:30:41.349Z,39.1
2022-08-20T03:31:45.958Z,39.1
2022-08-20T03:32:47.495Z,39.3
2022-08-20T03:33:54.008Z,39.3
2022-08-20T03:34:55.713Z,39.6
2022-08-20T03:35:57.247Z,39.4
2022-08-20T03:36:58.778Z,39.3
2022-08-20T03:38:00.410Z,39.5
2022-08-20T03:39:02.291Z,39.8
2022-08-20T03:40:03.945Z,39.9
2022-08-20T03:41:07.518Z,40
2022-08-20T03:42:09.165Z,39.9
2022-08-20T03:43:10.778Z,39.9
2022-08-20T03:44:12.458Z,39.9
2022-08-20T03:45:20.303Z,40
2022-08-20T03:46:24.198Z,40
2022-08-20T03:47:25.892Z,40.1
2022-08-20T03:48:27.536Z,40.1
2022-08-20T03:49:29.176Z,40.4
2022-08-20T03:50:30.704Z,40.3
2022-08-20T03:51:58.674Z,40.3
2022-08-20T03:53:00.304Z,40.3
2022-08-20T03:54:01.975Z,40.3
2022-08-20T03:55:03.662Z,40.3
2022-08-20T03:56:05.375Z,40.3
2022-08-20T03:57:13.097Z,40.5
2022-08-20T03:58:14.704Z,40.4
2022-08-20T03:59:16.345Z,40.4
2022-08-20T04:00:17.882Z,40.5
2022-08-20T04:01:46.852Z,40.5
2022-08-20T04:02:48.933Z,40.6
2022-08-20T04:03:55.402Z,40.3
2022-08-20T04:04:57.135Z,40.6
2022-08-20T04:05:58.755Z,40.5
2022-08-20T04:07:00.357Z,40.7
2022-08-20T04:08:03.723Z,40.6
2022-08-20T04:09:06.795Z,40.8
2022-08-20T04:10:13.896Z,40.8
2022-08-20T04:11:15.506Z,40.8
2022-08-20T04:12:17.562Z,40.8
2022-08-20T04:13:23.660Z,41
2022-08-20T04:14:29.434Z,40.8
2022-08-20T04:15:33.080Z,40.8
2022-08-20T04:16:35.098Z,41
2022-08-20T04:17:36.946Z,41
2022-08-20T04:18:38.590Z,41
2022-08-20T04:19:40.247Z,40.9
2022-08-20T04:20:41.861Z,41
2022-08-20T04:21:43.629Z,40.9
2022-08-20T04:22:59.775Z,41
2022-08-20T04:24:01.438Z,41
2022-08-20T04:25:07.717Z,41
2022-08-20T04:26:09.361Z,41
2022-08-20T04:27:11.010Z,40.9
2022-08-20T04:28:14.392Z,40.4
2022-08-20T04:29:15.922Z,40.4
2022-08-20T04:30:17.461Z,40.4
2022-08-20T04:31:25.486Z,40.4
2022-08-20T04:32:27.203Z,40.3
2022-08-20T04:33:35.110Z,40.1
2022-08-20T04:34:37.168Z,40.1
2022-08-20T04:35:38.807Z,39.9
2022-08-20T04:36:40.341Z,39.9
2022-08-20T04:37:41.972Z,39.9
2022-08-20T04:38:51.099Z,39.7
2022-08-20T04:39:53.004Z,39.5
2022-08-20T04:40:54.859Z,39.5
2022-08-20T04:41:56.402Z,39.3
2022-08-20T04:42:58.112Z,39.2
2022-08-20T04:43:59.814Z,39.2
2022-08-20T04:45:01.352Z,39.3
2022-08-20T04:46:03.151Z,39.2
2022-08-20T04:47:04.669Z,39.3
2022-08-20T04:48:06.314Z,39.1
2022-08-20T04:49:07.898Z,39
2022-08-20T04:50:10.756Z,38.8
2022-08-20T04:51:12.404Z,38.8
2022-08-20T04:52:16.341Z,39.2
2022-08-20T04:53:23.998Z,39.3
2022-08-20T04:54:27.501Z,39.3
2022-08-20T04:55:29.116Z,39.1
2022-08-20T04:56:30.740Z,39.4
2022-08-20T04:57:32.449Z,39.6
2022-08-20T04:58:34.051Z,39.9
2022-08-20T04:59:35.697Z,40.6
2022-08-20T05:00:37.342Z,40.7
2022-08-20T05:01:39.209Z,40.1
2022-08-20T05:02:41.249Z,40.2
2022-08-20T05:03:42.793Z,40.1
2022-08-20T05:04:44.395Z,40.1
2022-08-20T05:05:46.083Z,40.3
2022-08-20T05:06:47.728Z,40.4
2022-08-20T05:07:49.500Z,40.1
2022-08-20T05:08:51.497Z,40.1
2022-08-20T05:09:53.032Z,40.4
2022-08-20T05:11:36.624Z,40.3
2022-08-20T05:12:38.721Z,40.3
2022-08-20T05:13:40.255Z,40.1
2022-08-20T05:14:41.790Z,39.8
2022-08-20T05:15:43.490Z,39.7
2022-08-20T05:16:45.131Z,39.7
2022-08-20T05:17:46.836Z,39.8
2022-08-20T05:18:52.968Z,39.6
2022-08-20T05:19:54.657Z,39.5
2022-08-20T05:20:56.193Z,39.3
2022-08-20T05:21:57.966Z,39.3
2022-08-20T05:23:00.697Z,39.4
2022-08-20T05:24:02.238Z,39.3
2022-08-20T05:25:03.767Z,39.1
2022-08-20T05:26:05.405Z,38.9
2022-08-20T05:27:07.212Z,39
2022-08-20T05:28:26.777Z,39
2022-08-20T05:29:28.327Z,38.9
2022-08-20T05:30:29.927Z,38.8
2022-08-20T05:31:33.853Z,38.6
2022-08-20T05:32:44.889Z,38.6
2022-08-20T05:33:46.682Z,38.6
2022-08-20T05:34:48.221Z,38.6
2022-08-20T05:35:49.868Z,38.4
2022-08-20T05:36:51.510Z,38.3
2022-08-20T05:37:57.410Z,38.4
2022-08-20T05:38:59.553Z,38.5
2022-08-20T05:40:02.877Z,38.4
2022-08-20T05:41:04.823Z,38.2
2022-08-20T05:42:06.359Z,38.1
2022-08-20T05:43:07.935Z,38.2
2022-08-20T05:44:09.565Z,38.3
2022-08-20T05:45:11.656Z,38.2
2022-08-20T05:46:13.433Z,38.1
2022-08-20T05:47:15.054Z,37.9
2022-08-20T05:48:16.777Z,38
2022-08-20T05:49:18.525Z,38.1
2022-08-20T05:50:23.676Z,37.9
2022-08-20T05:51:25.365Z,37.8
2022-08-20T05:52:27.044Z,37.8
2022-08-20T05:53:28.660Z,37.9
2022-08-20T05:54:30.294Z,37.8
2022-08-20T05:55:31.838Z,37.7
2022-08-20T05:56:33.526Z,37.7
2022-08-20T05:57:35.269Z,37.9
2022-08-20T05:58:37.017Z,37.8
2022-08-20T05:59:38.623Z,37.8
2022-08-20T06:00:40.224Z,37.6
2022-08-20T06:01:41.967Z,37.6
2022-08-20T06:02:44.112Z,37.7
2022-08-20T06:03:45.655Z,37.5
2022-08-20T06:04:56.516Z,37.6
2022-08-20T06:05:58.046Z,37.6
2022-08-20T06:06:59.912Z,37.6
2022-08-20T06:08:08.312Z,37.5
2022-08-20T06:09:10.161Z,37.6
2022-08-20T06:10:11.808Z,37.6
2022-08-20T06:11:13.553Z,37.5
2022-08-20T06:12:15.209Z,37.7
2022-08-20T06:13:16.748Z,37.4
2022-08-20T06:14:18.404Z,37.3
2022-08-20T06:15:20.035Z,37.5
2022-08-20T06:16:29.594Z,37.8
2022-08-20T06:17:39.838Z,37.9
2022-08-20T06:18:43.568Z,38
2022-08-20T06:19:47.082Z,38
2022-08-20T06:20:48.720Z,38
2022-08-20T06:21:54.073Z,38.3
2022-08-20T06:22:55.959Z,38.1
2022-08-20T06:24:02.304Z,38.1
2022-08-20T06:25:04.740Z,38.2
2022-08-20T06:26:06.277Z,38.2
2022-08-20T06:27:07.929Z,38.3
2022-08-20T06:28:09.572Z,38.3
2022-08-20T06:29:11.218Z,38.4
2022-08-20T06:30:12.867Z,38.4
2022-08-20T06:31:14.610Z,38.4
2022-08-20T06:32:16.262Z,38.4
2022-08-20T06:33:17.939Z,38.3
2022-08-20T06:34:19.556Z,38.5
2022-08-20T06:35:21.295Z,38.5
2022-08-20T06:36:22.858Z,38.4
2022-08-20T06:37:31.652Z,38.5
2022-08-20T06:38:38.825Z,38.4
2022-08-20T06:39:40.504Z,38.6
2022-08-20T06:40:42.364Z,38.7
2022-08-20T06:41:43.910Z,38.6
2022-08-20T06:42:49.097Z,38.6
2022-08-20T06:43:50.839Z,38.7
2022-08-20T06:44:52.488Z,38.7
2022-08-20T06:45:54.097Z,38.7
2022-08-20T06:46:55.638Z,38.2
2022-08-20T06:47:57.633Z,38.3
2022-08-20T06:48:59.926Z,38.5
2022-08-20T06:50:01.632Z,38.6
2022-08-20T06:51:03.279Z,38.5
2022-08-20T06:52:04.927Z,38.7
2022-08-20T06:53:07.141Z,38.6
2022-08-20T06:54:11.699Z,38.7
2022-08-20T06:55:13.343Z,38.7
2022-08-20T06:56:14.854Z,38.7
2022-08-20T06:57:16.394Z,38.8
2022-08-20T06:58:38.758Z,38.8
2022-08-20T06:59:40.572Z,38.7
2022-08-20T07:00:42.323Z,38.7
2022-08-20T07:01:44.354Z,38.7
2022-08-20T07:02:46.094Z,38.7
2022-08-20T07:03:56.190Z,38.8
2022-08-20T07:04:58.048Z,38.8
2022-08-20T07:05:59.696Z,38.7
2022-08-20T07:07:01.302Z,38.8
2022-08-20T07:08:02.835Z,38.9
2022-08-20T07:09:04.491Z,38.8
2022-08-20T07:10:06.172Z,38.8
2022-08-20T07:11:07.816Z,38.8
2022-08-20T07:12:09.327Z,38.7
2022-08-20T07:13:10.866Z,38.8
2022-08-20T07:14:12.446Z,38.9
2022-08-20T07:15:13.990Z,38.8
2022-08-20T07:16:15.741Z,38.9
2022-08-20T07:17:17.318Z,38.8
2022-08-20T07:18:29.146Z,38.8
2022-08-20T07:19:30.875Z,38.8
2022-08-20T07:20:32.444Z,38.8
2022-08-20T07:21:34.096Z,38.8
2022-08-20T07:22:35.609Z,38.8
2022-08-20T07:23:37.286Z,38.9
2022-08-20T07:24:43.232Z,38.8
2022-08-20T07:25:50.652Z,38.8
2022-08-20T07:26:57.052Z,38.9
2022-08-20T07:27:58.757Z,38.9
2022-08-20T07:29:00.467Z,38.8
2022-08-20T07:30:02.012Z,38.8
2022-08-20T07:31:14.540Z,38.9
2022-08-20T07:32:26.298Z,38.8
2022-08-20T07:33:30.701Z,38.7
2022-08-20T07:34:32.757Z,38.8
2022-08-20T07:35:36.178Z,38.8
2022-08-20T07:36:37.710Z,38.8
2022-08-20T07:37:39.438Z,38.9
2022-08-20T07:38:41.008Z,39.3
2022-08-20T07:39:42.740Z,39.3
2022-08-20T07:40:47.259Z,39.3
2022-08-20T07:41:56.870Z,39.5
2022-08-20T07:42:58.762Z,39.7
2022-08-20T07:44:00.464Z,39.7
2022-08-20T07:45:02.108Z,39.8
2022-08-20T07:46:03.644Z,39.8
2022-08-20T07:47:05.274Z,39.9
2022-08-20T07:48:06.910Z,40
2022-08-20T07:49:08.586Z,40
2022-08-20T07:50:10.230Z,40
2022-08-20T07:51:11.770Z,40.2
2022-08-20T07:52:13.309Z,40.3
2022-08-20T07:53:14.861Z,40.5
2022-08-20T07:54:16.504Z,40.4
2022-08-20T07:55:18.123Z,40.4
2022-08-20T07:56:19.653Z,40.6
2022-08-20T07:57:21.344Z,40.5
2022-08-20T07:58:29.563Z,40.4
2022-08-20T07:59:35.262Z,40.5
2022-08-20T08:00:36.942Z,40.4
2022-08-20T08:01:38.883Z,40.2
2022-08-20T08:02:40.568Z,40.1
2022-08-20T08:03:50.674Z,40
2022-08-20T08:04:52.469Z,39.9
2022-08-20T08:05:54.102Z,40
2022-08-20T08:06:55.645Z,40.1
2022-08-20T08:07:57.184Z,40.2
2022-08-20T08:08:58.789Z,40
2022-08-20T08:10:00.401Z,39.8
2022-08-20T08:11:01.993Z,39.9
2022-08-20T08:12:03.566Z,40.1
2022-08-20T08:13:05.111Z,40
2022-08-20T08:14:06.802Z,40.1
2022-08-20T08:15:08.437Z,40.6
2022-08-20T08:16:10.016Z,41.4
2022-08-20T08:17:11.645Z,41.3
2022-08-20T08:18:15.030Z,41.4
2022-08-20T08:19:16.682Z,41.3
2022-08-20T08:20:18.291Z,41.1
2022-08-20T08:21:19.832Z,41
2022-08-20T08:22:21.523Z,40.2
2022-08-20T08:23:32.287Z,40.2
2022-08-20T08:24:33.995Z,40.2
2022-08-20T08:25:35.538Z,39.9
2022-08-20T08:26:37.173Z,39.8
2022-08-20T08:27:38.783Z,39.6
2022-08-20T08:28:40.583Z,39.5
2022-08-20T08:29:42.227Z,39.5
2022-08-20T08:30:43.890Z,39.4
2022-08-20T08:31:45.762Z,39.4
2022-08-20T08:32:47.728Z,39.4
2022-08-20T08:33:49.441Z,39.4
2022-08-20T08:34:51.063Z,39.5
2022-08-20T08:35:52.596Z,39.5
2022-08-20T08:36:56.215Z,39.3
2022-08-20T08:37:57.929Z,39.3
2022-08-20T08:38:59.608Z,39.4
2022-08-20T08:40:01.300Z,39.5
2022-08-20T08:41:03.245Z,39.5
2022-08-20T08:42:04.955Z,39.3
2022-08-20T08:43:06.703Z,39.2
2022-08-20T08:44:08.549Z,39.2
2022-08-20T08:45:10.091Z,39.3
2022-08-20T08:46:11.634Z,39.3
2022-08-20T08:47:13.386Z,39.2
2022-08-20T08:48:18.807Z,39
2022-08-20T08:49:20.443Z,39.1
2022-08-20T08:50:54.599Z,39.1
2022-08-20T08:51:56.809Z,39.1
2022-08-20T08:52:58.680Z,38.9
2022-08-20T08:54:07.034Z,38.8
2022-08-20T08:55:08.934Z,38.8
2022-08-20T08:56:10.588Z,38.9
2022-08-20T08:57:12.161Z,39
2022-08-20T08:58:17.601Z,38.8
2022-08-20T08:59:19.507Z,38.8
2022-08-20T09:00:21.113Z,38.9
2022-08-20T09:01:57.349Z,39
2022-08-20T09:03:00.458Z,38.8
2022-08-20T09:04:03.093Z,38.7
2022-08-20T09:05:04.699Z,38.7
2022-08-20T09:06:06.317Z,38.9
2022-08-20T09:07:07.990Z,38.9
2022-08-20T09:08:17.080Z,38.8
2022-08-20T09:09:18.859Z,38.7
2022-08-20T09:10:23.692Z,38.7
2022-08-20T09:11:25.325Z,38.8
2022-08-20T09:12:26.908Z,38.9
2022-08-20T09:13:28.584Z,38.9
2022-08-20T09:14:30.122Z,38.7
2022-08-20T09:15:31.716Z,38.6
2022-08-20T09:16:53.624Z,38.7
2022-08-20T09:17:56.752Z,38.7
2022-08-20T09:19:01.929Z,38.6
2022-08-20T09:20:03.573Z,38.5
2022-08-20T09:21:05.097Z,38.6
2022-08-20T09:22:06.762Z,38.6
2022-08-20T09:23:08.415Z,38.7
2022-08-20T09:24:10.052Z,38.7
2022-08-20T09:25:12.105Z,38.5
2022-08-20T09:26:13.638Z,38.5
2022-08-20T09:27:15.296Z,38.6
2022-08-20T09:28:17.052Z,38.6
2022-08-20T09:29:19.203Z,38.8
2022-08-20T09:30:20.851Z,39
2022-08-20T09:31:23.311Z,39.1
2022-08-20T09:32:26.315Z,39.1
2022-08-20T09:33:28.009Z,39.4
2022-08-20T09:34:29.557Z,39.5
2022-08-20T09:35:31.326Z,39.7
2022-08-20T09:36:33.333Z,39.8
2022-08-20T09:37:38.086Z,40
2022-08-20T09:38:39.846Z,39.7
2022-08-20T09:39:41.514Z,39.8
2022-08-20T09:40:43.546Z,39.9
2022-08-20T09:41:45.161Z,39.9
2022-08-20T09:42:46.771Z,39.6
2022-08-20T09:43:48.482Z,39.4
2022-08-20T09:44:50.023Z,39.7
2022-08-20T09:45:51.671Z,39.7
2022-08-20T09:46:53.319Z,39.7
2022-08-20T09:47:57.532Z,39.6
2022-08-20T09:49:01.362Z,39.8
2022-08-20T09:50:02.998Z,39.8
2022-08-20T09:51:04.544Z,39.8
2022-08-20T09:52:06.352Z,39.7
2022-08-20T09:53:08.000Z,39.6
2022-08-20T09:54:09.752Z,39.8
2022-08-20T09:55:14.770Z,39.7
2022-08-20T09:56:17.846Z,39.7
2022-08-20T09:57:19.502Z,39.6
2022-08-20T09:58:21.221Z,39.5
2022-08-20T09:59:22.744Z,39.6
2022-08-20T10:00:24.371Z,39.7
2022-08-20T10:01:26.223Z,39.7
2022-08-20T10:02:28.130Z,39.4
2022-08-20T10:03:29.775Z,39.5
2022-08-20T10:04:31.422Z,39.5
2022-08-20T10:05:32.966Z,39.6
2022-08-20T10:06:37.959Z,39.6
2022-08-20T10:07:39.638Z,39.5
2022-08-20T10:08:41.383Z,39.4
2022-08-20T10:09:43.024Z,39.4
2022-08-20T10:10:44.548Z,39.5
2022-08-20T10:11:46.155Z,39.6
2022-08-20T10:12:54.979Z,39.6
2022-08-20T10:13:56.977Z,39.4
2022-08-20T10:14:58.604Z,39.4
2022-08-20T10:16:00.274Z,39.5
2022-08-20T10:17:02.089Z,39.6
2022-08-20T10:18:03.880Z,39.5
2022-08-20T10:19:05.614Z,39.4
2022-08-20T10:20:07.164Z,39.3
2022-08-20T10:21:08.769Z,39.4
2022-08-20T10:22:10.308Z,39.4
2022-08-20T10:23:11.886Z,39.4
2022-08-20T10:24:13.635Z,39.4
2022-08-20T10:25:15.219Z,39.3
2022-08-20T10:26:16.795Z,39.4
2022-08-20T10:27:18.406Z,39.4
2022-08-20T10:28:20.014Z,39.4
2022-08-20T10:29:21.658Z,39.4
2022-08-20T10:30:23.262Z,40.1
2022-08-20T10:31:24.947Z,40.1
2022-08-20T10:32:26.589Z,39.5
2022-08-20T10:33:29.259Z,39.3
2022-08-20T10:34:30.849Z,39
2022-08-20T10:35:32.597Z,38.9
2022-08-20T10:36:34.135Z,38.9
2022-08-20T10:37:35.726Z,38.7
2022-08-20T10:38:37.403Z,38.9
2022-08-20T10:39:39.290Z,38.8
2022-08-20T10:40:52.198Z,39.8
2022-08-20T10:41:54.347Z,39.6
2022-08-20T10:42:55.924Z,39.3
2022-08-20T10:43:57.692Z,39.1
2022-08-20T10:44:59.228Z,39.1
2022-08-20T10:46:01.389Z,39.3
2022-08-20T10:47:03.042Z,39.2
2022-08-20T10:48:04.575Z,39.1
2022-08-20T10:49:06.229Z,39.1
2022-08-20T10:50:07.872Z,39.2
2022-08-20T10:51:09.720Z,39
2022-08-20T10:52:11.369Z,39.1
2022-08-20T10:53:13.010Z,39.2
2022-08-20T10:54:17.642Z,39
2022-08-20T10:55:19.245Z,39
2022-08-20T10:56:20.856Z,39.1
2022-08-20T10:57:22.423Z,39.1
2022-08-20T10:58:24.385Z,39.2
2022-08-20T10:59:26.058Z,39
2022-08-20T11:00:27.601Z,38.8
2022-08-20T11:01:36.653Z,38.8
2022-08-20T11:02:38.694Z,38.7
2022-08-20T11:03:40.765Z,39
2022-08-20T11:04:42.297Z,38.9
2022-08-20T11:05:44.020Z,38.8
2022-08-20T11:06:45.642Z,38.8
2022-08-20T11:07:56.903Z,38.8
2022-08-20T11:08:58.551Z,38.7
2022-08-20T11:10:00.325Z,38.8
2022-08-20T11:11:01.975Z,38.7
2022-08-20T11:12:03.607Z,38.4
2022-08-20T11:13:05.472Z,38.6
2022-08-20T11:14:07.113Z,38.7
2022-08-20T11:15:09.679Z,38.8
2022-08-20T11:16:12.348Z,38.6
2022-08-20T11:17:13.995Z,38.5
2022-08-20T11:18:15.524Z,38.5
2022-08-20T11:19:17.064Z,38.3
2022-08-20T11:20:18.605Z,38.5
2022-08-20T11:21:20.274Z,38.5
2022-08-20T11:22:21.911Z,38.4
2022-08-20T11:23:26.374Z,38.2
2022-08-20T11:24:28.071Z,38.2
2022-08-20T11:25:29.685Z,38.5
2022-08-20T11:26:31.226Z,38.5
2022-08-20T11:27:32.863Z,38.5
2022-08-20T11:28:34.408Z,38.3
2022-08-20T11:29:36.198Z,38.2
2022-08-20T11:30:37.728Z,38.5
2022-08-20T11:31:39.578Z,38.5
2022-08-20T11:32:41.121Z,38.4
2022-08-20T11:33:42.774Z,38.3
2022-08-20T11:34:44.567Z,38
2022-08-20T11:35:50.157Z,38.2
2022-08-20T11:36:51.983Z,38.3
2022-08-20T11:37:53.757Z,38.3
2022-08-20T11:38:55.403Z,38
2022-08-20T11:39:57.110Z,38.1
2022-08-20T11:40:59.042Z,38.1
2022-08-20T11:42:00.748Z,38.2
2022-08-20T11:43:18.728Z,38.2
2022-08-20T11:44:21.965Z,38.1
2022-08-20T11:45:23.573Z,37.8
2022-08-20T11:46:28.875Z,37.9
2022-08-20T11:47:30.586Z,38.3
2022-08-20T11:48:32.197Z,38.2
2022-08-20T11:49:33.734Z,38.1
2022-08-20T11:50:35.310Z,37.9
2022-08-20T11:51:50.307Z,37.9
2022-08-20T11:52:52.125Z,38
2022-08-20T11:53:53.657Z,37.9
2022-08-20T11:54:55.395Z,37.7
2022-08-20T11:55:57.055Z,37.7
2022-08-20T11:56:58.587Z,37.7
2022-08-20T11:58:01.422Z,37.8
2022-08-20T11:59:03.101Z,37.8
2022-08-20T12:00:04.827Z,37.6
2022-08-20T12:01:06.365Z,37.5
2022-08-20T12:02:12.769Z,37.6
2022-08-20T12:03:15.098Z,37.6
2022-08-20T12:04:17.119Z,37.7
2022-08-20T12:05:18.659Z,37.7
2022-08-20T12:06:20.192Z,37.6
2022-08-20T12:07:21.727Z,37.5
2022-08-20T12:08:28.289Z,37.6
2022-08-20T12:09:29.899Z,37.7
2022-08-20T12:10:31.557Z,37.6
2022-08-20T12:11:33.323Z,37.5
2022-08-20T12:12:35.081Z,37.4
2022-08-20T12:13:49.276Z,37.4
2022-08-20T12:14:50.920Z,37.9
2022-08-20T12:15:52.686Z,37.3
2022-08-20T12:16:54.229Z,37.2
2022-08-20T12:17:55.810Z,37.3
2022-08-20T12:18:57.486Z,36.8
2022-08-20T12:19:59.060Z,36.9
2022-08-20T12:21:00.649Z,36.9
2022-08-20T12:22:25.615Z,36.9
2022-08-20T12:23:27.212Z,36.7
2022-08-20T12:24:28.893Z,36.9
2022-08-20T12:25:30.423Z,36.7
2022-08-20T12:26:31.960Z,36.6
2022-08-20T12:27:33.518Z,36.5
2022-08-20T12:28:35.162Z,36.6
2022-08-20T12:29:37.434Z,37.1
2022-08-20T12:30:39.269Z,37.3
2022-08-20T12:31:40.927Z,37.4
2022-08-20T12:32:42.564Z,37.7
2022-08-20T12:33:44.107Z,37.8
2022-08-20T12:34:45.854Z,37.9
2022-08-20T12:35:47.499Z,38.2
2022-08-20T12:36:49.143Z,38.4
2022-08-20T12:37:50.676Z,38.9
2022-08-20T12:38:52.211Z,38.7
2022-08-20T12:39:53.993Z,38.7
2022-08-20T12:40:55.870Z,37.9
2022-08-20T12:41:57.550Z,37.9
2022-08-20T12:42:59.089Z,37.9
2022-08-20T12:44:00.631Z,37.6
2022-08-20T12:45:02.304Z,37.5
2022-08-20T12:46:03.837Z,37.4
2022-08-20T12:47:05.490Z,37.4
2022-08-20T12:48:07.137Z,37.5
2022-08-20T12:49:08.830Z,37.7
2022-08-20T12:50:10.533Z,37.8
2022-08-20T12:51:12.277Z,37.7
2022-08-20T12:52:13.835Z,37.6
2022-08-20T12:53:15.466Z,37.5
2022-08-20T12:54:17.049Z,37.6
2022-08-20T12:55:18.628Z,37.8
2022-08-20T12:56:20.167Z,38
2022-08-20T12:57:21.719Z,38
2022-08-20T12:58:23.588Z,38
2022-08-20T12:59:26.364Z,38.2
2022-08-20T13:00:27.903Z,38.4
2022-08-20T13:01:31.609Z,38.6
2022-08-20T13:02:33.594Z,38.6
2022-08-20T13:03:45.398Z,38.6
2022-08-20T13:04:47.181Z,39
2022-08-20T13:05:48.726Z,39.2
2022-08-20T13:06:51.396Z,38.8
2022-08-20T13:07:52.923Z,38.7
2022-08-20T13:08:54.585Z,38.6
2022-08-20T13:09:56.227Z,38.8
2022-08-20T13:10:57.874Z,38.8
2022-08-20T13:12:02.601Z,38.6
2022-08-20T13:13:07.379Z,38.5
2022-08-20T13:14:09.032Z,38.4
2022-08-20T13:15:10.800Z,38.4
2022-08-20T13:16:12.416Z,38.6
2022-08-20T13:17:13.949Z,38.8
2022-08-20T13:18:18.031Z,38.7
2022-08-20T13:19:19.581Z,38.5
2022-08-20T13:20:21.178Z,38.4
2022-08-20T13:21:24.359Z,38.5
2022-08-20T13:22:25.885Z,38.5
2022-08-20T13:23:27.512Z,38.5
2022-08-20T13:24:29.051Z,38.7
2022-08-20T13:25:30.711Z,38.6
2022-08-20T13:26:32.353Z,38.5
2022-08-20T13:27:34.006Z,38.5
2022-08-20T13:28:35.672Z,38.6
2022-08-20T13:29:37.218Z,38.7
2022-08-20T13:30:39.064Z,38.8
2022-08-20T13:31:40.615Z,38.8
2022-08-20T13:32:42.274Z,38.7
2022-08-20T13:33:43.922Z,38.8
2022-08-20T13:34:45.542Z,38.7
2022-08-20T13:35:47.190Z,38.8
2022-08-20T13:36:48.808Z,38.9
2022-08-20T13:37:50.480Z,39.1
2022-08-20T13:38:52.196Z,39.1
2022-08-20T13:39:54.025Z,39.1
2022-08-20T13:40:56.026Z,39
2022-08-20T13:41:58.719Z,39.1
2022-08-20T13:43:07.243Z,39
2022-08-20T13:44:13.703Z,39.1
2022-08-20T13:45:15.354Z,39.3
2022-08-20T13:46:17.057Z,39.5
2022-08-20T13:47:18.693Z,39.4
2022-08-20T13:48:20.220Z,39.2
2022-08-20T13:49:21.822Z,39.2
2022-08-20T13:50:23.537Z,39.1
2022-08-20T13:51:27.796Z,39.2
2022-08-20T13:52:32.353Z,39.3
2022-08-20T13:53:33.972Z,39.4
2022-08-20T13:54:35.515Z,39.5
2022-08-20T13:55:39.336Z,39.4
2022-08-20T13:56:40.875Z,39.3
2022-08-20T13:57:42.494Z,39.3
2022-08-20T13:58:44.137Z,39.4
2022-08-20T13:59:45.739Z,39.3
2022-08-20T14:00:47.357Z,39.5